sensor_id;sensor_type;location;lat;lon;timestamp;temperature;humidity
49132;DHT22;35149;51.196;6.204;2022-09-03T00:02:39;18.90;44.60
49132;DHT22;35149;51.196;6.204;2022-09-03T00:08:33;18.80;45.10
49132;DHT22;35149;51.196;6.204;2022-09-03T00:13:43;18.70;45.10
49132;DHT22;35149;51.196;6.204;2022-09-03T00:16:23;18.70;44.80
49132;DHT22;35149;51.196;6.204;2022-09-03T00:19:00;18.70;45.60
49132;DHT22;35149;51.196;6.204;2022-09-03T00:22:08;18.60;45.70
49132;DHT22;35149;51.196;6.204;2022-09-03T00:24:38;18.60;45.50
49132;DHT22;35149;51.196;6.204;2022-09-03T00:27:12;18.50;45.20
49132;DHT22;35149;51.196;6.204;2022-09-03T00:29:47;18.50;45.70
49132;DHT22;35149;51.196;6.204;2022-09-03T00:32:42;18.50;45.80
49132;DHT22;35149;51.196;6.204;2022-09-03T00:35:47;18.40;46.00
49132;DHT22;35149;51.196;6.204;2022-09-03T00:38:21;18.40;46.30
49132;DHT22;35149;51.196;6.204;2022-09-03T00:46:14;18.30;46.70
49132;DHT22;35149;51.196;6.204;2022-09-03T00:51:49;18.20;46.60
49132;DHT22;35149;51.196;6.204;2022-09-03T00:54:24;18.20;46.60
49132;DHT22;35149;51.196;6.204;2022-09-03T00:57:19;18.20;46.50
49132;DHT22;35149;51.196;6.204;2022-09-03T01:05:21;18.10;47.10
49132;DHT22;35149;51.196;6.204;2022-09-03T01:10:45;18.10;47.30
49132;DHT22;35149;51.196;6.204;2022-09-03T01:13:38;18.00;47.20
49132;DHT22;35149;51.196;6.204;2022-09-03T01:16:31;18.10;47.30
49132;DHT22;35149;51.196;6.204;2022-09-03T01:30:41;18.00;47.50
49132;DHT22;35149;51.196;6.204;2022-09-03T01:33:38;17.90;47.10
49132;DHT22;35149;51.196;6.204;2022-09-03T01:36:31;17.90;47.60
49132;DHT22;35149;51.196;6.204;2022-09-03T01:39:05;17.90;47.50
49132;DHT22;35149;51.196;6.204;2022-09-03T01:50:53;17.80;47.70
49132;DHT22;35149;51.196;6.204;2022-09-03T02:02:37;17.70;47.90
49132;DHT22;35149;51.196;6.204;2022-09-03T02:05:25;17.70;47.10
49132;DHT22;35149;51.196;6.204;2022-09-03T02:10:39;17.70;47.80
49132;DHT22;35149;51.196;6.204;2022-09-03T02:13:23;17.60;47.90
49132;DHT22;35149;51.196;6.204;2022-09-03T02:16:00;17.60;48.00
49132;DHT22;35149;51.196;6.204;2022-09-03T02:18:36;17.60;47.80
49132;DHT22;35149;51.196;6.204;2022-09-03T02:21:06;17.60;48.20
49132;DHT22;35149;51.196;6.204;2022-09-03T02:23:38;17.60;47.80
49132;DHT22;35149;51.196;6.204;2022-09-03T02:26:12;17.60;48.00
49132;DHT22;35149;51.196;6.204;2022-09-03T02:28:41;17.60;48.20
49132;DHT22;35149;51.196;6.204;2022-09-03T02:31:16;17.60;47.90
49132;DHT22;35149;51.196;6.204;2022-09-03T02:33:48;17.60;47.90
49132;DHT22;35149;51.196;6.204;2022-09-03T02:36:30;17.60;47.80
49132;DHT22;35149;51.196;6.204;2022-09-03T02:39:08;17.60;48.30
49132;DHT22;35149;51.196;6.204;2022-09-03T02:41:36;17.50;47.70
49132;DHT22;35149;51.196;6.204;2022-09-03T02:44:25;17.50;47.80
49132;DHT22;35149;51.196;6.204;2022-09-03T02:46:58;17.50;48.50
49132;DHT22;35149;51.196;6.204;2022-09-03T02:49:28;17.50;47.90
49132;DHT22;35149;51.196;6.204;2022-09-03T02:52:07;17.50;47.90
49132;DHT22;35149;51.196;6.204;2022-09-03T02:54:40;17.50;48.70
49132;DHT22;35149;51.196;6.204;2022-09-03T02:57:12;17.40;48.00
49132;DHT22;35149;51.196;6.204;2022-09-03T02:59:53;17.50;48.60
49132;DHT22;35149;51.196;6.204;2022-09-03T03:02:22;17.40;48.20
49132;DHT22;35149;51.196;6.204;2022-09-03T03:04:52;17.40;48.30
49132;DHT22;35149;51.196;6.204;2022-09-03T03:07:20;17.40;48.60
49132;DHT22;35149;51.196;6.204;2022-09-03T03:09:47;17.30;48.40
49132;DHT22;35149;51.196;6.204;2022-09-03T03:12:23;17.30;48.50
49132;DHT22;35149;51.196;6.204;2022-09-03T03:14:54;17.30;48.50
49132;DHT22;35149;51.196;6.204;2022-09-03T03:17:21;17.30;48.60
49132;DHT22;35149;51.196;6.204;2022-09-03T03:19:50;17.30;48.50
49132;DHT22;35149;51.196;6.204;2022-09-03T03:22:24;17.30;48.60
49132;DHT22;35149;51.196;6.204;2022-09-03T03:24:53;17.30;48.70
49132;DHT22;35149;51.196;6.204;2022-09-03T03:27:22;17.30;49.00
49132;DHT22;35149;51.196;6.204;2022-09-03T03:29:49;17.30;48.70
49132;DHT22;35149;51.196;6.204;2022-09-03T03:32:16;17.30;48.90
49132;DHT22;35149;51.196;6.204;2022-09-03T03:34:42;17.30;49.00
49132;DHT22;35149;51.196;6.204;2022-09-03T03:37:09;17.30;48.90
49132;DHT22;35149;51.196;6.204;2022-09-03T03:39:36;17.30;49.10
49132;DHT22;35149;51.196;6.204;2022-09-03T03:42:13;17.30;49.00
49132;DHT22;35149;51.196;6.204;2022-09-03T03:44:40;17.40;49.20
49132;DHT22;35149;51.196;6.204;2022-09-03T03:47:13;17.40;49.30
49132;DHT22;35149;51.196;6.204;2022-09-03T03:49:45;17.50;49.10
49132;DHT22;35149;51.196;6.204;2022-09-03T03:52:12;17.50;49.10
49132;DHT22;35149;51.196;6.204;2022-09-03T03:54:40;17.60;49.10
49132;DHT22;35149;51.196;6.204;2022-09-03T03:57:11;17.70;49.80
49132;DHT22;35149;51.196;6.204;2022-09-03T03:59:41;17.70;49.00
49132;DHT22;35149;51.196;6.204;2022-09-03T04:02:10;17.80;49.30
49132;DHT22;35149;51.196;6.204;2022-09-03T04:04:39;17.80;48.90
49132;DHT22;35149;51.196;6.204;2022-09-03T04:07:07;17.90;49.10
49132;DHT22;35149;51.196;6.204;2022-09-03T04:09:34;18.00;48.80
49132;DHT22;35149;51.196;6.204;2022-09-03T04:12:02;18.00;48.90
49132;DHT22;35149;51.196;6.204;2022-09-03T04:14:31;18.10;48.50
49132;DHT22;35149;51.196;6.204;2022-09-03T04:16:58;18.10;48.70
49132;DHT22;35149;51.196;6.204;2022-09-03T04:19:28;18.10;48.20
49132;DHT22;35149;51.196;6.204;2022-09-03T04:21:55;18.20;48.40
49132;DHT22;35149;51.196;6.204;2022-09-03T04:24:22;18.20;48.50
49132;DHT22;35149;51.196;6.204;2022-09-03T04:26:49;18.30;48.70
49132;DHT22;35149;51.196;6.204;2022-09-03T04:29:17;18.30;48.70
49132;DHT22;35149;51.196;6.204;2022-09-03T04:31:48;18.30;47.90
49132;DHT22;35149;51.196;6.204;2022-09-03T04:34:34;18.40;48.30
49132;DHT22;35149;51.196;6.204;2022-09-03T04:37:03;18.40;48.20
49132;DHT22;35149;51.196;6.204;2022-09-03T04:39:30;18.50;48.20
49132;DHT22;35149;51.196;6.204;2022-09-03T04:41:59;18.50;47.70
49132;DHT22;35149;51.196;6.204;2022-09-03T04:44:28;18.50;48.00
49132;DHT22;35149;51.196;6.204;2022-09-03T04:46:55;18.50;48.00
49132;DHT22;35149;51.196;6.204;2022-09-03T04:49:24;18.60;48.10
49132;DHT22;35149;51.196;6.204;2022-09-03T04:51:55;18.60;48.30
49132;DHT22;35149;51.196;6.204;2022-09-03T04:54:25;18.50;48.40
49132;DHT22;35149;51.196;6.204;2022-09-03T04:56:57;18.70;48.20
49132;DHT22;35149;51.196;6.204;2022-09-03T04:59:28;18.60;48.00
49132;DHT22;35149;51.196;6.204;2022-09-03T05:01:58;18.60;48.10
49132;DHT22;35149;51.196;6.204;2022-09-03T05:04:31;18.70;47.70
49132;DHT22;35149;51.196;6.204;2022-09-03T05:06:58;18.70;48.00
49132;DHT22;35149;51.196;6.204;2022-09-03T05:09:25;18.70;48.20
49132;DHT22;35149;51.196;6.204;2022-09-03T05:11:52;18.70;48.20
49132;DHT22;35149;51.196;6.204;2022-09-03T05:14:19;18.70;48.30
49132;DHT22;35149;51.196;6.204;2022-09-03T05:16:47;18.70;47.90
49132;DHT22;35149;51.196;6.204;2022-09-03T05:19:22;18.80;48.00
49132;DHT22;35149;51.196;6.204;2022-09-03T05:21:48;18.80;47.90
49132;DHT22;35149;51.196;6.204;2022-09-03T05:24:17;18.80;47.90
49132;DHT22;35149;51.196;6.204;2022-09-03T05:26:44;18.80;48.20
49132;DHT22;35149;51.196;6.204;2022-09-03T05:29:11;18.80;48.10
49132;DHT22;35149;51.196;6.204;2022-09-03T05:31:38;18.90;47.70
49132;DHT22;35149;51.196;6.204;2022-09-03T05:34:08;19.00;48.50
49132;DHT22;35149;51.196;6.204;2022-09-03T05:36:41;19.00;48.20
49132;DHT22;35149;51.196;6.204;2022-09-03T05:39:08;19.10;47.70
49132;DHT22;35149;51.196;6.204;2022-09-03T05:41:35;19.10;47.30
49132;DHT22;35149;51.196;6.204;2022-09-03T05:44:02;19.20;47.00
49132;DHT22;35149;51.196;6.204;2022-09-03T05:46:30;19.30;46.70
49132;DHT22;35149;51.196;6.204;2022-09-03T05:49:06;19.40;47.00
49132;DHT22;35149;51.196;6.204;2022-09-03T05:51:38;19.40;47.40
49132;DHT22;35149;51.196;6.204;2022-09-03T05:54:10;19.50;47.20
49132;DHT22;35149;51.196;6.204;2022-09-03T05:56:40;19.60;47.10
49132;DHT22;35149;51.196;6.204;2022-09-03T05:59:12;19.70;47.30
49132;DHT22;35149;51.196;6.204;2022-09-03T06:01:47;19.70;47.00
49132;DHT22;35149;51.196;6.204;2022-09-03T06:04:24;19.80;46.40
49132;DHT22;35149;51.196;6.204;2022-09-03T06:06:54;19.80;45.90
49132;DHT22;35149;51.196;6.204;2022-09-03T06:09:23;19.90;46.50
49132;DHT22;35149;51.196;6.204;2022-09-03T06:11:52;19.90;46.40
49132;DHT22;35149;51.196;6.204;2022-09-03T06:14:22;19.90;46.20
49132;DHT22;35149;51.196;6.204;2022-09-03T06:16:49;19.90;46.40
49132;DHT22;35149;51.196;6.204;2022-09-03T06:19:18;19.90;46.70
49132;DHT22;35149;51.196;6.204;2022-09-03T06:21:46;19.90;46.30
49132;DHT22;35149;51.196;6.204;2022-09-03T06:24:15;19.90;46.60
49132;DHT22;35149;51.196;6.204;2022-09-03T06:26:43;19.90;47.10
49132;DHT22;35149;51.196;6.204;2022-09-03T06:29:10;19.90;46.40
49132;DHT22;35149;51.196;6.204;2022-09-03T06:31:37;19.90;46.10
49132;DHT22;35149;51.196;6.204;2022-09-03T06:34:05;19.90;46.20
49132;DHT22;35149;51.196;6.204;2022-09-03T06:36:32;19.90;46.90
49132;DHT22;35149;51.196;6.204;2022-09-03T06:38:58;20.00;47.40
49132;DHT22;35149;51.196;6.204;2022-09-03T06:41:27;20.00;46.30
49132;DHT22;35149;51.196;6.204;2022-09-03T06:43:58;20.00;46.30
49132;DHT22;35149;51.196;6.204;2022-09-03T06:46:30;20.10;46.30
49132;DHT22;35149;51.196;6.204;2022-09-03T06:48:57;20.10;45.80
49132;DHT22;35149;51.196;6.204;2022-09-03T06:51:26;20.10;45.80
49132;DHT22;35149;51.196;6.204;2022-09-03T06:53:58;20.20;46.00
49132;DHT22;35149;51.196;6.204;2022-09-03T06:56:27;20.20;45.90
49132;DHT22;35149;51.196;6.204;2022-09-03T06:59:04;20.30;46.00
49132;DHT22;35149;51.196;6.204;2022-09-03T07:01:35;20.40;45.60
49132;DHT22;35149;51.196;6.204;2022-09-03T07:04:06;20.50;45.60
49132;DHT22;35149;51.196;6.204;2022-09-03T07:06:37;20.60;44.90
49132;DHT22;35149;51.196;6.204;2022-09-03T07:09:05;20.70;45.00
49132;DHT22;35149;51.196;6.204;2022-09-03T07:11:37;20.80;44.80
49132;DHT22;35149;51.196;6.204;2022-09-03T07:14:18;20.90;44.50
49132;DHT22;35149;51.196;6.204;2022-09-03T07:16:48;21.00;44.40
49132;DHT22;35149;51.196;6.204;2022-09-03T07:19:16;21.10;44.30
49132;DHT22;35149;51.196;6.204;2022-09-03T07:21:48;21.20;44.10
49132;DHT22;35149;51.196;6.204;2022-09-03T07:24:18;21.20;44.10
49132;DHT22;35149;51.196;6.204;2022-09-03T07:26:45;21.30;44.10
49132;DHT22;35149;51.196;6.204;2022-09-03T07:29:16;21.40;44.00
49132;DHT22;35149;51.196;6.204;2022-09-03T07:31:45;21.40;43.70
49132;DHT22;35149;51.196;6.204;2022-09-03T07:34:14;21.50;43.70
49132;DHT22;35149;51.196;6.204;2022-09-03T07:36:50;21.50;43.40
49132;DHT22;35149;51.196;6.204;2022-09-03T07:39:19;21.60;43.50
49132;DHT22;35149;51.196;6.204;2022-09-03T07:41:46;21.60;43.30
49132;DHT22;35149;51.196;6.204;2022-09-03T07:44:14;21.60;43.10
49132;DHT22;35149;51.196;6.204;2022-09-03T07:46:44;21.70;43.20
49132;DHT22;35149;51.196;6.204;2022-09-03T07:49:20;21.70;43.10
49132;DHT22;35149;51.196;6.204;2022-09-03T07:51:54;21.80;43.00
49132;DHT22;35149;51.196;6.204;2022-09-03T07:54:22;21.80;42.80
49132;DHT22;35149;51.196;6.204;2022-09-03T07:56:51;21.90;43.00
49132;DHT22;35149;51.196;6.204;2022-09-03T07:59:20;22.00;43.00
49132;DHT22;35149;51.196;6.204;2022-09-03T08:01:48;22.00;42.80
49132;DHT22;35149;51.196;6.204;2022-09-03T08:04:16;22.10;42.80
49132;DHT22;35149;51.196;6.204;2022-09-03T08:06:43;22.20;42.90
49132;DHT22;35149;51.196;6.204;2022-09-03T08:09:13;22.30;42.70
49132;DHT22;35149;51.196;6.204;2022-09-03T08:11:41;22.30;42.30
49132;DHT22;35149;51.196;6.204;2022-09-03T08:14:15;22.50;42.40
49132;DHT22;35149;51.196;6.204;2022-09-03T08:16:51;22.60;42.20
49132;DHT22;35149;51.196;6.204;2022-09-03T08:19:18;22.70;42.60
49132;DHT22;35149;51.196;6.204;2022-09-03T08:21:47;22.80;41.60
49132;DHT22;35149;51.196;6.204;2022-09-03T08:24:16;22.90;41.60
49132;DHT22;35149;51.196;6.204;2022-09-03T08:26:43;23.00;41.50
49132;DHT22;35149;51.196;6.204;2022-09-03T08:29:19;23.10;41.60
49132;DHT22;35149;51.196;6.204;2022-09-03T08:31:46;23.20;41.10
49132;DHT22;35149;51.196;6.204;2022-09-03T08:34:13;23.30;40.90
49132;DHT22;35149;51.196;6.204;2022-09-03T08:36:42;23.40;40.90
49132;DHT22;35149;51.196;6.204;2022-09-03T08:39:10;23.40;40.80
49132;DHT22;35149;51.196;6.204;2022-09-03T08:42:15;23.50;40.80
49132;DHT22;35149;51.196;6.204;2022-09-03T08:47:24;23.60;40.70
49132;DHT22;35149;51.196;6.204;2022-09-03T08:52:34;23.70;40.20
49132;DHT22;35149;51.196;6.204;2022-09-03T09:03:58;23.70;40.10
49132;DHT22;35149;51.196;6.204;2022-09-03T09:09:50;23.80;40.20
49132;DHT22;35149;51.196;6.204;2022-09-03T09:23:07;23.80;40.10
49132;DHT22;35149;51.196;6.204;2022-09-03T09:25:47;23.80;39.90
49132;DHT22;35149;51.196;6.204;2022-09-03T09:30:48;23.80;40.10
49132;DHT22;35149;51.196;6.204;2022-09-03T09:33:17;23.90;40.00
49132;DHT22;35149;51.196;6.204;2022-09-03T09:35:46;23.90;40.10
49132;DHT22;35149;51.196;6.204;2022-09-03T09:38:14;23.90;40.20
49132;DHT22;35149;51.196;6.204;2022-09-03T09:40:44;23.90;40.20
49132;DHT22;35149;51.196;6.204;2022-09-03T09:43:16;24.00;40.30
49132;DHT22;35149;51.196;6.204;2022-09-03T09:45:46;24.00;40.30
49132;DHT22;35149;51.196;6.204;2022-09-03T09:48:29;24.10;40.20
49132;DHT22;35149;51.196;6.204;2022-09-03T09:53:40;24.20;40.20
49132;DHT22;35149;51.196;6.204;2022-09-03T09:56:07;24.20;40.20
49132;DHT22;35149;51.196;6.204;2022-09-03T09:58:34;24.30;40.20
49132;DHT22;35149;51.196;6.204;2022-09-03T10:01:03;24.30;40.20
49132;DHT22;35149;51.196;6.204;2022-09-03T10:03:33;24.30;40.50
49132;DHT22;35149;51.196;6.204;2022-09-03T10:06:06;24.50;40.30
49132;DHT22;35149;51.196;6.204;2022-09-03T10:09:04;24.50;40.50
49132;DHT22;35149;51.196;6.204;2022-09-03T10:11:33;24.50;40.30
49132;DHT22;35149;51.196;6.204;2022-09-03T10:14:25;24.60;40.40
49132;DHT22;35149;51.196;6.204;2022-09-03T10:17:13;24.70;40.40
49132;DHT22;35149;51.196;6.204;2022-09-03T10:19:57;24.80;40.00
49132;DHT22;35149;51.196;6.204;2022-09-03T10:22:53;24.90;39.80
49132;DHT22;35149;51.196;6.204;2022-09-03T10:25:28;25.00;39.90
49132;DHT22;35149;51.196;6.204;2022-09-03T10:27:57;25.00;39.70
49132;DHT22;35149;51.196;6.204;2022-09-03T10:30:29;25.10;39.60
49132;DHT22;35149;51.196;6.204;2022-09-03T10:33:15;25.10;39.20
49132;DHT22;35149;51.196;6.204;2022-09-03T10:35:47;25.20;39.20
49132;DHT22;35149;51.196;6.204;2022-09-03T10:38:31;25.20;39.20
49132;DHT22;35149;51.196;6.204;2022-09-03T10:46:30;25.30;39.90
49132;DHT22;35149;51.196;6.204;2022-09-03T10:49:23;25.40;39.40
49132;DHT22;35149;51.196;6.204;2022-09-03T11:00:16;25.70;39.50
49132;DHT22;35149;51.196;6.204;2022-09-03T11:05:38;25.80;39.20
49132;DHT22;35149;51.196;6.204;2022-09-03T11:08:26;26.00;39.30
49132;DHT22;35149;51.196;6.204;2022-09-03T11:11:19;26.10;39.40
49132;DHT22;35149;51.196;6.204;2022-09-03T11:14:09;26.20;39.30
49132;DHT22;35149;51.196;6.204;2022-09-03T11:16:51;26.30;39.50
49132;DHT22;35149;51.196;6.204;2022-09-03T11:19:26;26.40;39.40
49132;DHT22;35149;51.196;6.204;2022-09-03T11:21:58;26.50;39.10
49132;DHT22;35149;51.196;6.204;2022-09-03T11:24:27;26.60;39.10
49132;DHT22;35149;51.196;6.204;2022-09-03T11:30:01;26.90;38.80
49132;DHT22;35149;51.196;6.204;2022-09-03T11:32:47;27.00;38.80
49132;DHT22;35149;51.196;6.204;2022-09-03T11:38:03;27.10;39.00
49132;DHT22;35149;51.196;6.204;2022-09-03T11:43:30;27.20;38.70
49132;DHT22;35149;51.196;6.204;2022-09-03T11:48:50;27.30;39.00
49132;DHT22;35149;51.196;6.204;2022-09-03T11:54:02;27.20;38.90
49132;DHT22;35149;51.196;6.204;2022-09-03T11:56:31;27.30;39.60
49132;DHT22;35149;51.196;6.204;2022-09-03T11:59:03;27.30;39.00
49132;DHT22;35149;51.196;6.204;2022-09-03T12:01:30;27.40;38.90
49132;DHT22;35149;51.196;6.204;2022-09-03T12:04:03;27.40;38.80
49132;DHT22;35149;51.196;6.204;2022-09-03T12:09:33;27.50;38.70
49132;DHT22;35149;51.196;6.204;2022-09-03T12:12:11;27.50;39.00
49132;DHT22;35149;51.196;6.204;2022-09-03T12:17:52;27.60;38.70
49132;DHT22;35149;51.196;6.204;2022-09-03T12:20:39;27.70;38.60
49132;DHT22;35149;51.196;6.204;2022-09-03T12:23:09;27.80;38.70
49132;DHT22;35149;51.196;6.204;2022-09-03T12:25:44;27.90;38.90
49132;DHT22;35149;51.196;6.204;2022-09-03T12:28:19;28.00;38.70
49132;DHT22;35149;51.196;6.204;2022-09-03T12:30:49;28.00;38.30
49132;DHT22;35149;51.196;6.204;2022-09-03T12:33:20;28.10;38.50
49132;DHT22;35149;51.196;6.204;2022-09-03T12:36:00;28.20;38.60
49132;DHT22;35149;51.196;6.204;2022-09-03T12:38:28;28.30;38.40
49132;DHT22;35149;51.196;6.204;2022-09-03T12:41:26;28.30;38.00
49132;DHT22;35149;51.196;6.204;2022-09-03T12:43:58;28.40;37.70
49132;DHT22;35149;51.196;6.204;2022-09-03T12:46:31;28.50;37.80
49132;DHT22;35149;51.196;6.204;2022-09-03T12:49:05;28.50;37.70
49132;DHT22;35149;51.196;6.204;2022-09-03T12:52:04;28.50;37.50
49132;DHT22;35149;51.196;6.204;2022-09-03T12:54:42;28.60;37.80
49132;DHT22;35149;51.196;6.204;2022-09-03T12:57:20;28.70;37.90
49132;DHT22;35149;51.196;6.204;2022-09-03T12:59:53;28.70;37.60
49132;DHT22;35149;51.196;6.204;2022-09-03T13:02:26;28.80;37.50
49132;DHT22;35149;51.196;6.204;2022-09-03T13:04:54;28.90;37.30
49132;DHT22;35149;51.196;6.204;2022-09-03T13:07:29;29.00;37.20
49132;DHT22;35149;51.196;6.204;2022-09-03T13:10:05;29.10;37.20
49132;DHT22;35149;51.196;6.204;2022-09-03T13:12:42;29.20;36.80
49132;DHT22;35149;51.196;6.204;2022-09-03T13:15:23;29.30;36.90
49132;DHT22;35149;51.196;6.204;2022-09-03T13:26:17;29.80;36.40
49132;DHT22;35149;51.196;6.204;2022-09-03T13:31:52;30.10;36.20
49132;DHT22;35149;51.196;6.204;2022-09-03T13:34:44;30.30;36.10
49132;DHT22;35149;51.196;6.204;2022-09-03T13:39:47;30.80;36.10
49132;DHT22;35149;51.196;6.204;2022-09-03T13:48:07;33.50;35.60
49132;DHT22;35149;51.196;6.204;2022-09-03T13:54:34;36.50;34.20
49132;DHT22;35149;51.196;6.204;2022-09-03T13:57:29;38.00;32.90
49132;DHT22;35149;51.196;6.204;2022-09-03T14:00:09;39.20;30.00
49132;DHT22;35149;51.196;6.204;2022-09-03T14:02:45;40.50;29.50
49132;DHT22;35149;51.196;6.204;2022-09-03T14:08:08;42.60;27.90
49132;DHT22;35149;51.196;6.204;2022-09-03T14:11:00;43.60;27.50
49132;DHT22;35149;51.196;6.204;2022-09-03T14:19:18;46.10;25.10
49132;DHT22;35149;51.196;6.204;2022-09-03T14:21:49;46.70;24.90
49132;DHT22;35149;51.196;6.204;2022-09-03T14:24:30;47.20;24.80
49132;DHT22;35149;51.196;6.204;2022-09-03T14:27:02;47.70;24.10
49132;DHT22;35149;51.196;6.204;2022-09-03T14:29:34;48.10;24.10
49132;DHT22;35149;51.196;6.204;2022-09-03T14:32:28;48.50;23.50
49132;DHT22;35149;51.196;6.204;2022-09-03T14:40:44;48.60;24.10
49132;DHT22;35149;51.196;6.204;2022-09-03T14:49:33;47.10;23.00
49132;DHT22;35149;51.196;6.204;2022-09-03T14:55:41;45.80;23.90
49132;DHT22;35149;51.196;6.204;2022-09-03T14:58:18;45.20;23.40
49132;DHT22;35149;51.196;6.204;2022-09-03T15:03:20;43.80;23.90
49132;DHT22;35149;51.196;6.204;2022-09-03T15:06:06;43.10;24.40
49132;DHT22;35149;51.196;6.204;2022-09-03T15:12:00;42.90;25.00
49132;DHT22;35149;51.196;6.204;2022-09-03T15:14:38;43.30;25.20
49132;DHT22;35149;51.196;6.204;2022-09-03T15:17:25;43.80;24.80
49132;DHT22;35149;51.196;6.204;2022-09-03T15:23:08;45.10;24.80
49132;DHT22;35149;51.196;6.204;2022-09-03T15:28:32;46.20;23.90
49132;DHT22;35149;51.196;6.204;2022-09-03T15:36:39;46.60;23.30
49132;DHT22;35149;51.196;6.204;2022-09-03T15:39:14;46.20;22.90
49132;DHT22;35149;51.196;6.204;2022-09-03T15:44:17;44.80;23.20
49132;DHT22;35149;51.196;6.204;2022-09-03T15:46:58;44.00;23.30
49132;DHT22;35149;51.196;6.204;2022-09-03T15:52:48;42.20;23.80
49132;DHT22;35149;51.196;6.204;2022-09-03T16:00:57;39.60;25.50
49132;DHT22;35149;51.196;6.204;2022-09-03T16:14:50;36.40;29.00
49132;DHT22;35149;51.196;6.204;2022-09-03T16:23:21;35.10;30.80
49132;DHT22;35149;51.196;6.204;2022-09-03T16:26:00;34.70;31.30
49132;DHT22;35149;51.196;6.204;2022-09-03T16:28:36;34.30;32.40
49132;DHT22;35149;51.196;6.204;2022-09-03T16:31:41;33.90;32.70
49132;DHT22;35149;51.196;6.204;2022-09-03T16:51:32;33.70;35.10
49132;DHT22;35149;51.196;6.204;2022-09-03T16:54:05;33.90;35.20
49132;DHT22;35149;51.196;6.204;2022-09-03T16:56:46;34.20;35.10
49132;DHT22;35149;51.196;6.204;2022-09-03T16:59:21;34.70;35.40
49132;DHT22;35149;51.196;6.204;2022-09-03T17:02:03;35.20;35.30
49132;DHT22;35149;51.196;6.204;2022-09-03T17:08:07;36.10;33.80
49132;DHT22;35149;51.196;6.204;2022-09-03T17:10:58;36.40;33.70
49132;DHT22;35149;51.196;6.204;2022-09-03T17:16:41;36.20;33.30
49132;DHT22;35149;51.196;6.204;2022-09-03T17:24:34;35.00;33.60
49132;DHT22;35149;51.196;6.204;2022-09-03T17:30:17;34.10;34.40
49132;DHT22;35149;51.196;6.204;2022-09-03T17:36:07;33.20;35.60
49132;DHT22;35149;51.196;6.204;2022-09-03T17:44:32;32.00;36.20
49132;DHT22;35149;51.196;6.204;2022-09-03T17:47:29;31.70;36.80
49132;DHT22;35149;51.196;6.204;2022-09-03T17:52:49;31.00;37.40
49132;DHT22;35149;51.196;6.204;2022-09-03T17:58:13;30.50;38.40
49132;DHT22;35149;51.196;6.204;2022-09-03T18:01:10;30.30;39.00
49132;DHT22;35149;51.196;6.204;2022-09-03T18:06:54;29.70;38.60
49132;DHT22;35149;51.196;6.204;2022-09-03T18:12:26;29.30;38.90
49132;DHT22;35149;51.196;6.204;2022-09-03T18:17:52;28.90;40.50
49132;DHT22;35149;51.196;6.204;2022-09-03T18:20:21;28.80;40.60
49132;DHT22;35149;51.196;6.204;2022-09-03T18:23:24;28.60;40.90
49132;DHT22;35149;51.196;6.204;2022-09-03T18:26:18;28.40;41.70
49132;DHT22;35149;51.196;6.204;2022-09-03T18:29:14;28.20;41.60
49132;DHT22;35149;51.196;6.204;2022-09-03T18:32:00;28.10;42.30
49132;DHT22;35149;51.196;6.204;2022-09-03T18:34:48;27.90;42.00
49132;DHT22;35149;51.196;6.204;2022-09-03T18:37:34;27.70;42.50
49132;DHT22;35149;51.196;6.204;2022-09-03T18:40:26;27.50;42.80
49132;DHT22;35149;51.196;6.204;2022-09-03T18:43:13;27.40;43.70
49132;DHT22;35149;51.196;6.204;2022-09-03T18:46:13;27.20;43.20
49132;DHT22;35149;51.196;6.204;2022-09-03T18:49:47;27.00;43.80
49132;DHT22;35149;51.196;6.204;2022-09-03T19:10:50;26.00;45.90
49132;DHT22;35149;51.196;6.204;2022-09-03T19:13:36;25.90;43.70
49132;DHT22;35149;51.196;6.204;2022-09-03T19:20:10;25.60;45.80
49132;DHT22;35149;51.196;6.204;2022-09-03T19:23:01;25.50;45.80
49132;DHT22;35149;51.196;6.204;2022-09-03T19:25:52;25.30;45.60
49132;DHT22;35149;51.196;6.204;2022-09-03T19:28:42;25.20;45.60
49132;DHT22;35149;51.196;6.204;2022-09-03T19:32:02;25.10;46.20
49132;DHT22;35149;51.196;6.204;2022-09-03T19:37:59;24.90;46.40
49132;DHT22;35149;51.196;6.204;2022-09-03T19:41:12;24.70;47.20
49132;DHT22;35149;51.196;6.204;2022-09-03T19:50:26;24.40;47.90
49132;DHT22;35149;51.196;6.204;2022-09-03T19:53:17;24.40;45.90
49132;DHT22;35149;51.196;6.204;2022-09-03T19:56:16;24.30;47.50
49132;DHT22;35149;51.196;6.204;2022-09-03T19:59:16;24.20;48.40
49132;DHT22;35149;51.196;6.204;2022-09-03T20:02:03;24.10;48.70
49132;DHT22;35149;51.196;6.204;2022-09-03T20:05:00;24.00;48.40
49132;DHT22;35149;51.196;6.204;2022-09-03T20:07:49;23.90;49.40
49132;DHT22;35149;51.196;6.204;2022-09-03T20:10:44;23.90;49.20
49132;DHT22;35149;51.196;6.204;2022-09-03T20:13:19;23.80;49.20
49132;DHT22;35149;51.196;6.204;2022-09-03T20:15:57;23.70;49.70
49132;DHT22;35149;51.196;6.204;2022-09-03T20:21:24;23.60;50.40
49132;DHT22;35149;51.196;6.204;2022-09-03T20:35:57;23.40;50.80
49132;DHT22;35149;51.196;6.204;2022-09-03T20:47:41;23.20;51.70
49132;DHT22;35149;51.196;6.204;2022-09-03T20:50:33;23.30;52.00
49132;DHT22;35149;51.196;6.204;2022-09-03T20:53:31;23.20;52.30
49132;DHT22;35149;51.196;6.204;2022-09-03T20:56:14;23.10;52.20
49132;DHT22;35149;51.196;6.204;2022-09-03T20:58:53;23.10;52.30
49132;DHT22;35149;51.196;6.204;2022-09-03T21:01:33;23.10;52.70
49132;DHT22;35149;51.196;6.204;2022-09-03T21:07:32;23.00;52.50
49132;DHT22;35149;51.196;6.204;2022-09-03T21:13:11;22.90;51.90
49132;DHT22;35149;51.196;6.204;2022-09-03T21:16:12;22.90;52.80
49132;DHT22;35149;51.196;6.204;2022-09-03T21:18:51;22.80;52.70
49132;DHT22;35149;51.196;6.204;2022-09-03T21:21:58;22.80;52.00
49132;DHT22;35149;51.196;6.204;2022-09-03T21:27:16;22.70;53.20
49132;DHT22;35149;51.196;6.204;2022-09-03T21:32:34;22.70;53.30
49132;DHT22;35149;51.196;6.204;2022-09-03T21:35:15;22.60;52.80
49132;DHT22;35149;51.196;6.204;2022-09-03T21:37:50;22.60;53.90
49132;DHT22;35149;51.196;6.204;2022-09-03T21:40:22;22.60;53.70
49132;DHT22;35149;51.196;6.204;2022-09-03T21:43:23;22.60;53.50
49132;DHT22;35149;51.196;6.204;2022-09-03T21:51:55;22.50;54.50
49132;DHT22;35149;51.196;6.204;2022-09-03T21:57:13;22.50;53.70
49132;DHT22;35149;51.196;6.204;2022-09-03T22:00:11;22.50;54.60
49132;DHT22;35149;51.196;6.204;2022-09-03T22:02:38;22.40;54.50
49132;DHT22;35149;51.196;6.204;2022-09-03T22:05:10;22.40;54.00
49132;DHT22;35149;51.196;6.204;2022-09-03T22:10:26;22.40;54.60
49132;DHT22;35149;51.196;6.204;2022-09-03T22:13:20;22.30;54.00
49132;DHT22;35149;51.196;6.204;2022-09-03T22:15:50;22.30;54.90
49132;DHT22;35149;51.196;6.204;2022-09-03T22:18:34;22.30;54.40
49132;DHT22;35149;51.196;6.204;2022-09-03T22:21:19;22.20;55.00